• Join FlightAware (Why Join?)
  • Login
  • US Flag 
12:09AM EDT


 

Airport Tracker/Info


-or-


 

Live Flight TrackerFlight Track Log ✈ N27XP ✈ 04-Sep-2013 ✈ KSOP - KMSP

Flight Track Log - Related Links

Times and Time Zones

All times are in EDT time to prevent confusion due to time zone crossing. See the N27XP flight status page for this flight to view local times or setup timezone preferences in your user account.

Time Position Orientation Groundspeed Altitude Reporting Facility
EDT Latitude Longitude Course Direction KTS MPH feet Rate Location/Type
10:20AM 35.4114 -79.4556 329° Northwest 285 328 7,500  Level Washington Center
10:21AM 35.4867 -79.5178 326° Northwest 280 322 9,600 1,860 Climbing Washington Center
10:23AM 35.6053 -79.6147 326° Northwest 295 339 12,600 1,680 Climbing Atlanta Center
10:24AM 35.6717 -79.6650 328° Northwest 301 346 14,200 1,800 Climbing Atlanta Center
10:25AM 35.6278 -79.6666 329° Northwest  Level FlightAware Approximate
10:25AM 35.7533 -79.7322 326° Northwest 317 365 16,200  Level Atlanta Center
10:26AM 35.8264 -79.7950 325° Northwest 322 371 17,500 1,200 Climbing Atlanta Center
10:27AM 35.8997 -79.8681 321° Northwest 327 376 18,700 1,200 Climbing Atlanta Center
10:28AM 35.9711 -79.9439 319° Northwest 334 384 20,000 1,200 Climbing Atlanta Center
10:29AM 36.0381 -80.0097 322° Northwest 339 390 21,200 1,140 Climbing Atlanta Center
10:30AM 36.1136 -80.0908 319° Northwest 344 396 22,300 1,080 Climbing Atlanta Center
10:31AM 36.1892 -80.1669 321° Northwest 349 402 23,400 1,020 Climbing Atlanta Center
10:32AM 36.2667 -80.2456 321° Northwest 349 402 24,400 1,200 Climbing Atlanta Center
10:33AM 36.3506 -80.3319 320° Northwest 349 402 25,800 1,200 Climbing Atlanta Center
10:34AM 36.4258 -80.4108 320° Northwest 349 402 26,900 1,020 Climbing Atlanta Center
10:35AM 36.5033 -80.4925 320° Northwest 349 402 27,900 900 Climbing Atlanta Center
10:36AM 36.5806 -80.5694 321° Northwest 349 402 28,700 900 Climbing Atlanta Center
10:37AM 36.6536 -80.6386 323° Northwest 363 418 29,700 960 Climbing Atlanta Center
10:38AM 36.7372 -80.7283 319° Northwest 363 418 30,700 900 Climbing Atlanta Center
10:39AM 36.8061 -80.8083 317° Northwest 363 418 31,600 900 Climbing Atlanta Center
10:40AM 36.8853 -80.8908 320° Northwest 363 418 32,500 840 Climbing Atlanta Center
10:42AM 37.0239 -81.0289 322° Northwest 373 429 34,000 780 Climbing Indianapolis Center
10:43AM 37.1158 -81.1264 320° Northwest 371 427 34,800 720 Climbing Indianapolis Center
10:44AM 37.1983 -81.2100 321° Northwest 375 432 35,500 720 Climbing Indianapolis Center
10:45AM 37.2839 -81.2858 325° Northwest 374 430 36,300 660 Climbing Indianapolis Center
10:46AM 37.3717 -81.3797 320° Northwest 375 432 36,900 300 Climbing Indianapolis Center
10:47AM 37.4483 -81.4636 319° Northwest 375 432 37,000  Climbing Indianapolis Center
10:48AM 37.5394 -81.5611 320° Northwest 389 448 37,000  Level Indianapolis Center
10:49AM 37.6297 -81.6572 320° Northwest 399 459 37,000  Level Indianapolis Center
10:50AM 37.7114 -81.7456 319° Northwest 406 467 37,000 120 Level Indianapolis Center
10:51AM 37.7964 -81.8381 319° Northwest 405 466 37,300 300 Climbing Indianapolis Center
10:52AM 37.8922 -81.9425 319° Northwest 403 464 37,700 300 Climbing Indianapolis Center
10:53AM 37.9750 -82.0333 319° Northwest 394 453 38,000 120 Climbing Indianapolis Center
10:54AM 38.0600 -82.1267 319° Northwest 399 459 38,000  Level Indianapolis Center
10:55AM 38.1458 -82.2208 319° Northwest 404 465 38,000  Level Indianapolis Center
10:56AM 38.2314 -82.3153 319° Northwest 406 467 38,000  Level Indianapolis Center
10:57AM 38.3178 -82.4125 319° Northwest 408 470 38,000  Level Indianapolis Center
10:58AM 38.4183 -82.5228 319° Northwest 408 470 38,000  Level Indianapolis Center
10:59AM 38.5044 -82.6178 319° Northwest 409 471 38,000  Level Indianapolis Center
11:00AM 38.5889 -82.7136 318° Northwest 407 468 38,000  Level Indianapolis Center
11:01AM 38.6783 -82.8128 319° Northwest 407 468 38,000  Level Indianapolis Center
11:02AM 38.7625 -82.9081 319° Northwest 405 466 38,000  Level Indianapolis Center
11:03AM 38.8472 -83.0033 319° Northwest 403 464 38,000  Level Indianapolis Center
11:04AM 38.9325 -83.1000 319° Northwest 406 467 38,000  Level Indianapolis Center
11:05AM 39.0219 -83.2014 319° Northwest 406 467 38,000  Level Indianapolis Center
11:06AM 39.1061 -83.2975 318° Northwest 403 464 38,000  Level Indianapolis Center
11:07AM 39.1897 -83.3939 318° Northwest 403 464 38,000  Level Indianapolis Center
11:08AM 39.2744 -83.4900 319° Northwest 404 465 38,000  Level Indianapolis Center
11:10AM 39.3744 -83.6056 318° Northwest 401 461 38,000  Level Indianapolis Center
11:11AM 39.4578 -83.7031 318° Northwest 402 463 38,000  Level Indianapolis Center
11:12AM 39.5422 -83.7997 319° Northwest 401 461 38,000  Level Indianapolis Center
11:13AM 39.6244 -83.8972 318° Northwest 399 459 38,000  Level Indianapolis Center
11:14AM 39.7092 -83.9944 319° Northwest 401 461 38,000  Level Indianapolis Center
11:15AM 39.7914 -84.0908 318° Northwest 397 457 38,000  Level Indianapolis Center
11:16AM 39.8739 -84.1864 318° Northwest 396 456 38,000  Level Indianapolis Center
11:17AM 39.9561 -84.2822 318° Northwest 395 455 38,000  Level Indianapolis Center
11:18AM 40.0378 -84.3786 318° Northwest 395 455 38,000  Level Indianapolis Center
11:19AM 40.1336 -84.4931 318° Northwest 389 448 38,000  Level Indianapolis Center
11:20AM 40.2131 -84.5892 317° Northwest 389 448 38,000  Level Indianapolis Center
11:21AM 40.2931 -84.6833 318° Northwest 388 447 38,000  Level Indianapolis Center
11:22AM 40.3733 -84.7778 318° Northwest 388 447 38,000  Level Indianapolis Center
11:23AM 40.4511 -84.8739 317° Northwest 385 443 38,000  Level Indianapolis Center
11:24AM 40.5342 -84.9733 318° Northwest 385 443 38,000  Level Indianapolis Center
11:25AM 40.6125 -85.0669 318° Northwest 384 442 38,000  Level Indianapolis Center
11:26AM 40.6986 -85.1706 318° Northwest 382 440 38,000  Level Chicago Center
11:27AM 40.7764 -85.2653 317° Northwest 381 438 38,000  Level Chicago Center
11:28AM 40.8542 -85.3619 317° Northwest 381 438 38,000  Level Chicago Center
11:29AM 40.9322 -85.4583 317° Northwest 383 441 38,000  Level Chicago Center
11:30AM 41.0247 -85.5719 317° Northwest 378 435 38,000  Level Chicago Center
11:31AM 41.1017 -85.6683 317° Northwest 378 435 38,000  Level Chicago Center
11:32AM 41.1789 -85.7631 317° Northwest 378 435 38,000  Level Chicago Center
11:33AM 41.2553 -85.8619 316° Northwest 381 438 38,000  Level Chicago Center
11:34AM 41.3317 -85.9575 317° Northwest 377 434 38,000  Level Chicago Center
11:35AM 41.4069 -86.0517 317° Northwest 371 427 38,000  Level Chicago Center
11:36AM 41.4825 -86.1450 317° Northwest 369 425 38,000  Level Chicago Center
11:37AM 41.5581 -86.2403 317° Northwest 371 427 38,000  Level Chicago Center
11:38AM 41.6492 -86.3550 317° Northwest 374 430 38,000  Level Chicago Center
11:39AM 41.7247 -86.4494 317° Northwest 372 428 38,000  Level Chicago Center
11:40AM 41.7975 -86.5450 316° Northwest 370 426 38,000  Level Chicago Center
11:41AM 41.8725 -86.6406 317° Northwest 370 426 38,000  Level Chicago Center
11:43AM 41.9544 -86.7475 316° Northwest 368 423 38,000  Level Chicago Center
11:44AM 42.0283 -86.8419 316° Northwest 368 423 38,000  Level Chicago Center
11:45AM 42.1019 -86.9378 316° Northwest 369 425 38,000  Level Chicago Center
11:47AM 42.2489 -87.1286 316° Northwest 370 426 38,000  Level Chicago Center
11:48AM 42.3222 -87.2242 316° Northwest 371 427 38,000  Level Chicago Center
11:49AM 42.4097 -87.3397 316° Northwest 370 426 38,000  Level Chicago Center
11:50AM 42.4825 -87.4364 316° Northwest 369 425 38,000  Level Chicago Center
11:51AM 42.5561 -87.5331 316° Northwest 370 426 38,000  Level Chicago Center
11:52AM 42.6225 -87.6219 315° West 370 426 38,000  Level Chicago Center
11:53AM 42.7103 -87.7392 316° Northwest 369 425 38,000  Level Chicago Center
11:54AM 42.7733 -87.8236 316° Northwest 368 423 38,000  Level Chicago Center
11:55AM 42.8614 -87.9417 316° Northwest 371 427 38,000  Level Chicago Center
11:56AM 42.9311 -88.0339 316° Northwest 372 428 38,000  Level Chicago Center
11:57AM 43.0047 -88.1328 316° Northwest 370 426 38,000  Level Chicago Center
11:58AM 43.0767 -88.2303 315° West 367 422 38,000  Level Chicago Center
11:59AM 43.1444 -88.3328 312° West 369 425 38,000  Level Chicago Center
12:00PM 43.2075 -88.4411 309° West 365 420 38,000  Level Chicago Center
12:01PM 43.2753 -88.5553 309° West 362 417 38,000  Level Chicago Center
12:02PM 43.3514 -88.6878 308° West 367 422 38,000  Level Chicago Center
12:03PM 43.4158 -88.7969 309° West 370 426 38,000 -60 Level Chicago Center
12:04PM 43.4786 -88.9036 309° West 375 432 37,900  Descending Chicago Center
12:05PM 43.5422 -89.0128 309° West 370 426 38,000  Climbing Chicago Center
12:06PM 43.6042 -89.1219 308° West 368 423 38,000  Level Chicago Center
12:07PM 43.6806 -89.2550 308° West 372 428 38,000  Level Chicago Center
12:08PM 43.7408 -89.3642 307° West 368 423 38,000  Level Chicago Center
12:09PM 43.8053 -89.4764 309° West 374 430 38,000  Level Chicago Center
12:10PM 43.8667 -89.5858 308° West 368 423 38,000 -360 Level Chicago Center
12:11PM 43.9294 -89.6961 308° West 367 422 37,300 -1,200 Descending Chicago Center
12:12PM 44.0056 -89.8322 308° West 373 429 35,600 -1,500 Descending Chicago Center
12:13PM 44.0653 -89.9419 307° West 365 420 34,200 -780 Descending Chicago Center
12:14PM 44.1256 -90.0517 307° West 364 419 34,000 -120 Descending Chicago Center
12:15PM 44.1892 -90.1661 308° West 375 432 34,000  Level Chicago Center
12:16PM 44.2564 -90.2864 308° West 394 453 34,000  Level Chicago Center
12:18PM 44.3325 -90.4261 307° West 380 437 34,000  Level Minneapolis Center
12:19PM 44.3942 -90.5392 307° West 370 426 34,000 -420 Level Minneapolis Center
12:20PM 44.4556 -90.6531 307° West 372 428 33,200 -900 Descending Minneapolis Center
12:21PM 44.5206 -90.7694 308° West 373 429 32,200 -1,320 Descending Minneapolis Center
12:22PM 44.5967 -90.9119 307° West 380 437 30,500 -1,500 Descending Minneapolis Center
12:23PM 44.6606 -91.0292 307° West 378 435 29,200 -1,320 Descending Minneapolis Center
12:24PM 44.7278 -91.1564 307° West 396 456 27,800 -1,320 Descending Minneapolis Center
12:25PM 44.7967 -91.2850 307° West 409 471 26,500 -1,500 Descending Minneapolis Center
12:26PM 44.8442 -91.4311 295° West 414 476 24,800 -1,860 Descending Minneapolis Center
12:27PM 44.8783 -91.5817 288° West 407 468 22,700 -2,520 Descending Minneapolis Center
12:28PM 44.9244 -91.7594 290° West 403 464 19,700 -2,580 Descending Minneapolis Center
12:29PM 44.9575 -91.9000 288° West 384 442 17,400 -2,220 Descending Minneapolis Center
12:30PM 44.9903 -92.0372 289° West 371 427 15,200 -2,100 Descending Minneapolis Center
12:31PM 45.0200 -92.1669 288° West 351 404 13,100 -1,980 Descending Minneapolis Center
12:32PM 45.0467 -92.2958 286° West 344 396 11,100 -1,020 Descending Minneapolis Center
12:33PM 45.0225 -92.4536 258° West 344 396 11,000 -480 Descending Minneapolis Center
12:34PM 44.9978 -92.5742 254° West 321 369 10,200 -1,020 Descending Minneapolis Center
12:35PM 44.9256 -92.6247 206° Southwest 291 335 8,900 -1,380 Descending Minneapolis Center
12:36PM 44.8600 -92.6636 203° Southwest 260 299 7,400 -1,680 Descending Minneapolis Center
12:37PM 44.8000 -92.7061 207° Southwest 245 282 5,500 -1,680 Descending Minneapolis Center
12:38PM 44.7597 -92.7783 232° Southwest 235 270 4,000 -780 Descending Minneapolis Center
12:39PM 44.7606 -92.8703 271° West 234 269 4,000  Level Minneapolis Center
12:40PM 44.7742 -92.9783 280° West 242 278 4,000 -180 Level Minneapolis Center
12:41PM 44.8056 -93.0428 304° West 200 230 3,700 -780 Descending Minneapolis Center
12:42PM 44.8267 -93.0928 301° West 155 178 2,500 -1,020 Descending Minneapolis Center
12:43PM 44.8442 -93.1333 301° West 125 144 1,700 -660 Descending Minneapolis Center
12:44PM 44.8656 -93.1822 302° West 123 142 1,200 -540 Descending Minneapolis Center
12:46PM 44.8667 -93.2167 297° West  Level FlightAware Approximate
12:53PM 44.8820 -93.2218 297° West  Level Estimated